sensor_id;sensor_type;location;lat;lon;timestamp;P1;durP1;ratioP1;P2;durP2;ratioP2
72801;SDS011;61891;55.818;37.084;2023-07-16T00:02:14;7.63;;;4.95;;
72801;SDS011;61891;55.818;37.084;2023-07-16T00:04:40;6.70;;;4.72;;
72801;SDS011;61891;55.818;37.084;2023-07-16T00:07:06;5.72;;;4.60;;
72801;SDS011;61891;55.818;37.084;2023-07-16T00:09:32;7.00;;;5.10;;
72801;SDS011;61891;55.818;37.084;2023-07-16T00:11:58;9.35;;;5.30;;
72801;SDS011;61891;55.818;37.084;2023-07-16T00:14:24;6.85;;;4.55;;
72801;SDS011;61891;55.818;37.084;2023-07-16T00:16:50;7.22;;;4.60;;
72801;SDS011;61891;55.818;37.084;2023-07-16T00:19:15;8.25;;;4.68;;
72801;SDS011;61891;55.818;37.084;2023-07-16T00:21:41;6.97;;;4.95;;
72801;SDS011;61891;55.818;37.084;2023-07-16T00:24:07;6.63;;;4.60;;
72801;SDS011;61891;55.818;37.084;2023-07-16T00:26:33;6.00;;;4.60;;
72801;SDS011;61891;55.818;37.084;2023-07-16T00:28:59;6.28;;;4.43;;
72801;SDS011;61891;55.818;37.084;2023-07-16T00:31:25;6.93;;;4.32;;
72801;SDS011;61891;55.818;37.084;2023-07-16T00:33:51;7.78;;;4.80;;
72801;SDS011;61891;55.818;37.084;2023-07-16T00:36:17;6.45;;;4.63;;
72801;SDS011;61891;55.818;37.084;2023-07-16T00:38:44;6.47;;;5.00;;
72801;SDS011;61891;55.818;37.084;2023-07-16T00:41:12;5.45;;;4.25;;
72801;SDS011;61891;55.818;37.084;2023-07-16T00:43:39;6.70;;;4.88;;
72801;SDS011;61891;55.818;37.084;2023-07-16T00:46:04;6.38;;;4.50;;
72801;SDS011;61891;55.818;37.084;2023-07-16T00:48:30;6.40;;;4.40;;
72801;SDS011;61891;55.818;37.084;2023-07-16T00:50:56;7.25;;;4.55;;
72801;SDS011;61891;55.818;37.084;2023-07-16T00:53:22;5.88;;;4.40;;
72801;SDS011;61891;55.818;37.084;2023-07-16T00:58:14;6.78;;;4.13;;
72801;SDS011;61891;55.818;37.084;2023-07-16T01:00:40;6.00;;;4.43;;
72801;SDS011;61891;55.818;37.084;2023-07-16T01:03:08;6.15;;;4.82;;
72801;SDS011;61891;55.818;37.084;2023-07-16T01:05:45;7.35;;;4.68;;
72801;SDS011;61891;55.818;37.084;2023-07-16T01:08:20;8.13;;;4.30;;
72801;SDS011;61891;55.818;37.084;2023-07-16T01:10:55;6.22;;;4.25;;
72801;SDS011;61891;55.818;37.084;2023-07-16T01:13:22;5.65;;;4.25;;
72801;SDS011;61891;55.818;37.084;2023-07-16T01:15:49;8.00;;;4.68;;
72801;SDS011;61891;55.818;37.084;2023-07-16T01:18:15;6.43;;;4.35;;
72801;SDS011;61891;55.818;37.084;2023-07-16T01:20:41;7.72;;;4.65;;
72801;SDS011;61891;55.818;37.084;2023-07-16T01:32:02;4.40;;;3.92;;
72801;SDS011;61891;55.818;37.084;2023-07-16T01:34:30;6.28;;;4.65;;
72801;SDS011;61891;55.818;37.084;2023-07-16T01:37:00;7.00;;;4.68;;
72801;SDS011;61891;55.818;37.084;2023-07-16T01:39:27;7.18;;;4.75;;
72801;SDS011;61891;55.818;37.084;2023-07-16T01:41:53;7.22;;;5.00;;
72801;SDS011;61891;55.818;37.084;2023-07-16T01:46:47;6.80;;;4.50;;
72801;SDS011;61891;55.818;37.084;2023-07-16T01:49:25;7.93;;;4.47;;
72801;SDS011;61891;55.818;37.084;2023-07-16T01:51:50;7.20;;;4.50;;
72801;SDS011;61891;55.818;37.084;2023-07-16T01:54:16;5.78;;;4.45;;
72801;SDS011;61891;55.818;37.084;2023-07-16T01:56:42;7.07;;;4.40;;
72801;SDS011;61891;55.818;37.084;2023-07-16T01:59:08;6.32;;;4.53;;
72801;SDS011;61891;55.818;37.084;2023-07-16T02:01:34;6.50;;;4.15;;
72801;SDS011;61891;55.818;37.084;2023-07-16T02:04:00;5.97;;;4.55;;
72801;SDS011;61891;55.818;37.084;2023-07-16T02:06:25;5.95;;;4.55;;
72801;SDS011;61891;55.818;37.084;2023-07-16T02:08:51;7.07;;;4.50;;
72801;SDS011;61891;55.818;37.084;2023-07-16T02:11:17;7.20;;;4.53;;
72801;SDS011;61891;55.818;37.084;2023-07-16T02:13:44;8.00;;;4.95;;
72801;SDS011;61891;55.818;37.084;2023-07-16T02:18:36;6.40;;;4.40;;
72801;SDS011;61891;55.818;37.084;2023-07-16T02:21:21;6.90;;;4.40;;
72801;SDS011;61891;55.818;37.084;2023-07-16T02:23:47;5.70;;;4.53;;
72801;SDS011;61891;55.818;37.084;2023-07-16T02:26:13;5.95;;;4.93;;
72801;SDS011;61891;55.818;37.084;2023-07-16T02:28:41;5.85;;;4.55;;
72801;SDS011;61891;55.818;37.084;2023-07-16T02:31:07;7.43;;;4.57;;
72801;SDS011;61891;55.818;37.084;2023-07-16T02:33:33;7.05;;;4.65;;
72801;SDS011;61891;55.818;37.084;2023-07-16T02:35:59;7.50;;;4.72;;
72801;SDS011;61891;55.818;37.084;2023-07-16T02:38:25;6.40;;;4.90;;
72801;SDS011;61891;55.818;37.084;2023-07-16T02:40:50;7.25;;;4.07;;
72801;SDS011;61891;55.818;37.084;2023-07-16T02:43:16;5.97;;;4.50;;
72801;SDS011;61891;55.818;37.084;2023-07-16T02:45:44;5.63;;;4.28;;
72801;SDS011;61891;55.818;37.084;2023-07-16T02:48:10;5.07;;;4.00;;
72801;SDS011;61891;55.818;37.084;2023-07-16T02:50:36;5.15;;;4.20;;
72801;SDS011;61891;55.818;37.084;2023-07-16T02:53:03;5.85;;;3.97;;
72801;SDS011;61891;55.818;37.084;2023-07-16T02:55:30;6.80;;;4.15;;
72801;SDS011;61891;55.818;37.084;2023-07-16T02:57:56;5.82;;;4.03;;
72801;SDS011;61891;55.818;37.084;2023-07-16T03:00:22;6.78;;;4.13;;
72801;SDS011;61891;55.818;37.084;2023-07-16T03:02:48;6.05;;;4.13;;
72801;SDS011;61891;55.818;37.084;2023-07-16T03:05:16;6.38;;;4.38;;
72801;SDS011;61891;55.818;37.084;2023-07-16T03:07:42;5.65;;;4.57;;
72801;SDS011;61891;55.818;37.084;2023-07-16T03:10:09;6.18;;;4.43;;
72801;SDS011;61891;55.818;37.084;2023-07-16T03:15:01;5.38;;;4.57;;
72801;SDS011;61891;55.818;37.084;2023-07-16T03:17:29;6.93;;;4.20;;
72801;SDS011;61891;55.818;37.084;2023-07-16T03:19:55;4.90;;;3.85;;
72801;SDS011;61891;55.818;37.084;2023-07-16T03:22:21;7.80;;;4.47;;
72801;SDS011;61891;55.818;37.084;2023-07-16T03:24:47;6.88;;;5.07;;
72801;SDS011;61891;55.818;37.084;2023-07-16T03:27:13;6.75;;;4.50;;
72801;SDS011;61891;55.818;37.084;2023-07-16T03:29:40;6.68;;;4.30;;
72801;SDS011;61891;55.818;37.084;2023-07-16T03:32:08;6.53;;;4.32;;
72801;SDS011;61891;55.818;37.084;2023-07-16T03:34:34;5.10;;;4.18;;
72801;SDS011;61891;55.818;37.084;2023-07-16T03:37:00;4.95;;;4.20;;
72801;SDS011;61891;55.818;37.084;2023-07-16T03:39:26;6.30;;;4.65;;
72801;SDS011;61891;55.818;37.084;2023-07-16T03:41:54;5.85;;;4.25;;
72801;SDS011;61891;55.818;37.084;2023-07-16T03:44:20;5.60;;;4.03;;
72801;SDS011;61891;55.818;37.084;2023-07-16T03:46:45;6.53;;;4.38;;
72801;SDS011;61891;55.818;37.084;2023-07-16T03:49:11;6.00;;;4.93;;
72801;SDS011;61891;55.818;37.084;2023-07-16T03:51:38;6.43;;;4.40;;
72801;SDS011;61891;55.818;37.084;2023-07-16T03:54:04;7.32;;;4.72;;
72801;SDS011;61891;55.818;37.084;2023-07-16T03:56:32;7.40;;;4.40;;
72801;SDS011;61891;55.818;37.084;2023-07-16T03:58:58;5.70;;;4.10;;
72801;SDS011;61891;55.818;37.084;2023-07-16T04:01:24;5.78;;;4.30;;
72801;SDS011;61891;55.818;37.084;2023-07-16T04:03:50;5.13;;;4.25;;
72801;SDS011;61891;55.818;37.084;2023-07-16T04:06:16;6.25;;;4.75;;
72801;SDS011;61891;55.818;37.084;2023-07-16T04:08:42;6.43;;;4.68;;
72801;SDS011;61891;55.818;37.084;2023-07-16T04:11:07;7.15;;;4.65;;
72801;SDS011;61891;55.818;37.084;2023-07-16T04:13:35;5.68;;;4.35;;
72801;SDS011;61891;55.818;37.084;2023-07-16T04:16:01;6.43;;;4.45;;
72801;SDS011;61891;55.818;37.084;2023-07-16T04:18:26;8.13;;;4.55;;
72801;SDS011;61891;55.818;37.084;2023-07-16T04:20:52;6.95;;;4.28;;
72801;SDS011;61891;55.818;37.084;2023-07-16T04:25:45;5.45;;;4.40;;
72801;SDS011;61891;55.818;37.084;2023-07-16T04:28:11;7.40;;;4.63;;
72801;SDS011;61891;55.818;37.084;2023-07-16T04:30:38;7.00;;;4.30;;
72801;SDS011;61891;55.818;37.084;2023-07-16T04:35:29;5.78;;;4.40;;
72801;SDS011;61891;55.818;37.084;2023-07-16T04:37:55;6.72;;;4.63;;
72801;SDS011;61891;55.818;37.084;2023-07-16T04:40:21;5.28;;;4.38;;
72801;SDS011;61891;55.818;37.084;2023-07-16T04:42:47;5.43;;;4.88;;
72801;SDS011;61891;55.818;37.084;2023-07-16T04:45:13;9.35;;;4.75;;
72801;SDS011;61891;55.818;37.084;2023-07-16T04:47:39;6.28;;;4.90;;
72801;SDS011;61891;55.818;37.084;2023-07-16T04:50:05;5.15;;;4.57;;
72801;SDS011;61891;55.818;37.084;2023-07-16T04:52:31;6.38;;;4.63;;
72801;SDS011;61891;55.818;37.084;2023-07-16T04:54:57;4.85;;;4.38;;
72801;SDS011;61891;55.818;37.084;2023-07-16T04:57:23;5.32;;;4.82;;
72801;SDS011;61891;55.818;37.084;2023-07-16T04:59:49;4.75;;;4.20;;
72801;SDS011;61891;55.818;37.084;2023-07-16T05:02:15;6.00;;;4.72;;
72801;SDS011;61891;55.818;37.084;2023-07-16T05:04:42;5.95;;;4.80;;
72801;SDS011;61891;55.818;37.084;2023-07-16T05:07:13;5.30;;;4.28;;
72801;SDS011;61891;55.818;37.084;2023-07-16T05:09:40;5.05;;;4.55;;
72801;SDS011;61891;55.818;37.084;2023-07-16T05:12:07;7.13;;;4.72;;
72801;SDS011;61891;55.818;37.084;2023-07-16T05:14:42;6.60;;;4.38;;
72801;SDS011;61891;55.818;37.084;2023-07-16T05:17:10;5.00;;;4.25;;
72801;SDS011;61891;55.818;37.084;2023-07-16T05:19:36;5.88;;;3.95;;
72801;SDS011;61891;55.818;37.084;2023-07-16T05:22:01;5.57;;;4.00;;
72801;SDS011;61891;55.818;37.084;2023-07-16T05:24:27;5.18;;;4.05;;
72801;SDS011;61891;55.818;37.084;2023-07-16T05:29:19;4.93;;;4.15;;
72801;SDS011;61891;55.818;37.084;2023-07-16T05:31:45;6.80;;;4.40;;
72801;SDS011;61891;55.818;37.084;2023-07-16T05:34:12;4.47;;;3.72;;
72801;SDS011;61891;55.818;37.084;2023-07-16T05:36:38;6.40;;;4.32;;
72801;SDS011;61891;55.818;37.084;2023-07-16T05:39:03;4.72;;;4.15;;
72801;SDS011;61891;55.818;37.084;2023-07-16T05:41:29;4.50;;;3.95;;
72801;SDS011;61891;55.818;37.084;2023-07-16T05:46:20;5.75;;;4.50;;
72801;SDS011;61891;55.818;37.084;2023-07-16T05:48:46;5.10;;;4.60;;
72801;SDS011;61891;55.818;37.084;2023-07-16T05:53:37;4.95;;;4.25;;
72801;SDS011;61891;55.818;37.084;2023-07-16T05:58:29;4.70;;;4.05;;
72801;SDS011;61891;55.818;37.084;2023-07-16T06:03:20;4.50;;;3.60;;
72801;SDS011;61891;55.818;37.084;2023-07-16T06:08:11;4.18;;;3.78;;
72801;SDS011;61891;55.818;37.084;2023-07-16T06:10:37;4.45;;;3.75;;
72801;SDS011;61891;55.818;37.084;2023-07-16T06:13:04;5.32;;;3.92;;
72801;SDS011;61891;55.818;37.084;2023-07-16T06:17:55;4.75;;;3.42;;
72801;SDS011;61891;55.818;37.084;2023-07-16T06:22:46;6.35;;;3.63;;
72801;SDS011;61891;55.818;37.084;2023-07-16T06:25:12;4.35;;;3.95;;
72801;SDS011;61891;55.818;37.084;2023-07-16T06:30:04;4.70;;;3.63;;
72801;SDS011;61891;55.818;37.084;2023-07-16T06:32:31;4.22;;;3.65;;
72801;SDS011;61891;55.818;37.084;2023-07-16T06:37:22;10.07;;;4.80;;
72801;SDS011;61891;55.818;37.084;2023-07-16T06:39:49;5.18;;;3.42;;
72801;SDS011;61891;55.818;37.084;2023-07-16T06:42:15;4.00;;;3.60;;
72801;SDS011;61891;55.818;37.084;2023-07-16T06:44:41;3.67;;;3.28;;
72801;SDS011;61891;55.818;37.084;2023-07-16T06:47:07;5.30;;;3.47;;
72801;SDS011;61891;55.818;37.084;2023-07-16T06:49:33;3.65;;;3.15;;
72801;SDS011;61891;55.818;37.084;2023-07-16T06:54:27;4.40;;;3.45;;
72801;SDS011;61891;55.818;37.084;2023-07-16T06:56:54;6.20;;;3.92;;
72801;SDS011;61891;55.818;37.084;2023-07-16T06:59:19;4.28;;;3.45;;
72801;SDS011;61891;55.818;37.084;2023-07-16T07:01:45;3.95;;;3.42;;
72801;SDS011;61891;55.818;37.084;2023-07-16T07:04:11;4.30;;;3.80;;
72801;SDS011;61891;55.818;37.084;2023-07-16T07:06:37;4.47;;;2.92;;
72801;SDS011;61891;55.818;37.084;2023-07-16T07:09:03;3.40;;;2.83;;
72801;SDS011;61891;55.818;37.084;2023-07-16T07:11:29;4.15;;;3.10;;
72801;SDS011;61891;55.818;37.084;2023-07-16T07:13:55;3.33;;;2.90;;
72801;SDS011;61891;55.818;37.084;2023-07-16T07:16:22;3.50;;;3.20;;
72801;SDS011;61891;55.818;37.084;2023-07-16T07:18:49;3.45;;;3.00;;
72801;SDS011;61891;55.818;37.084;2023-07-16T07:21:15;3.15;;;2.85;;
72801;SDS011;61891;55.818;37.084;2023-07-16T07:23:41;3.65;;;2.63;;
72801;SDS011;61891;55.818;37.084;2023-07-16T07:26:07;3.55;;;2.50;;
72801;SDS011;61891;55.818;37.084;2023-07-16T07:28:34;2.90;;;2.65;;
72801;SDS011;61891;55.818;37.084;2023-07-16T07:31:00;3.17;;;2.88;;
72801;SDS011;61891;55.818;37.084;2023-07-16T07:33:26;4.15;;;3.00;;
72801;SDS011;61891;55.818;37.084;2023-07-16T07:35:54;4.68;;;2.78;;
72801;SDS011;61891;55.818;37.084;2023-07-16T07:38:20;3.92;;;3.20;;
72801;SDS011;61891;55.818;37.084;2023-07-16T07:40:46;4.10;;;3.70;;
72801;SDS011;61891;55.818;37.084;2023-07-16T07:43:12;3.85;;;3.17;;
72801;SDS011;61891;55.818;37.084;2023-07-16T07:48:04;5.68;;;4.25;;
72801;SDS011;61891;55.818;37.084;2023-07-16T07:50:29;5.03;;;4.28;;
72801;SDS011;61891;55.818;37.084;2023-07-16T07:52:55;4.35;;;3.95;;
72801;SDS011;61891;55.818;37.084;2023-07-16T07:55:21;5.22;;;4.45;;
72801;SDS011;61891;55.818;37.084;2023-07-16T07:57:47;4.68;;;4.07;;
72801;SDS011;61891;55.818;37.084;2023-07-16T08:02:40;4.57;;;4.05;;
72801;SDS011;61891;55.818;37.084;2023-07-16T08:05:06;4.97;;;3.50;;
72801;SDS011;61891;55.818;37.084;2023-07-16T08:07:32;3.70;;;3.35;;
72801;SDS011;61891;55.818;37.084;2023-07-16T08:09:58;4.15;;;3.35;;
72801;SDS011;61891;55.818;37.084;2023-07-16T08:12:23;3.85;;;3.45;;
72801;SDS011;61891;55.818;37.084;2023-07-16T08:14:49;3.90;;;3.50;;
72801;SDS011;61891;55.818;37.084;2023-07-16T08:17:15;5.75;;;3.92;;
72801;SDS011;61891;55.818;37.084;2023-07-16T08:19:41;5.43;;;3.65;;
72801;SDS011;61891;55.818;37.084;2023-07-16T08:22:06;4.40;;;3.28;;
72801;SDS011;61891;55.818;37.084;2023-07-16T08:24:32;4.10;;;3.10;;
72801;SDS011;61891;55.818;37.084;2023-07-16T08:26:58;3.45;;;3.15;;
72801;SDS011;61891;55.818;37.084;2023-07-16T08:29:24;3.28;;;2.97;;
72801;SDS011;61891;55.818;37.084;2023-07-16T08:31:50;2.70;;;2.50;;
72801;SDS011;61891;55.818;37.084;2023-07-16T08:34:16;3.45;;;3.15;;
72801;SDS011;61891;55.818;37.084;2023-07-16T08:36:41;3.30;;;2.90;;
72801;SDS011;61891;55.818;37.084;2023-07-16T08:39:09;5.18;;;3.28;;
72801;SDS011;61891;55.818;37.084;2023-07-16T08:41:35;3.65;;;3.20;;
72801;SDS011;61891;55.818;37.084;2023-07-16T08:44:01;3.55;;;3.25;;
72801;SDS011;61891;55.818;37.084;2023-07-16T08:46:27;3.67;;;3.33;;
72801;SDS011;61891;55.818;37.084;2023-07-16T08:48:53;5.35;;;3.50;;
72801;SDS011;61891;55.818;37.084;2023-07-16T08:51:20;4.15;;;3.38;;
72801;SDS011;61891;55.818;37.084;2023-07-16T08:53:46;4.22;;;3.60;;
72801;SDS011;61891;55.818;37.084;2023-07-16T08:56:12;3.58;;;3.28;;
72801;SDS011;61891;55.818;37.084;2023-07-16T08:58:38;3.60;;;3.30;;
72801;SDS011;61891;55.818;37.084;2023-07-16T09:01:06;4.38;;;3.40;;
72801;SDS011;61891;55.818;37.084;2023-07-16T09:03:32;3.58;;;3.13;;
72801;SDS011;61891;55.818;37.084;2023-07-16T09:05:58;6.07;;;3.10;;
72801;SDS011;61891;55.818;37.084;2023-07-16T09:08:24;3.85;;;3.55;;
72801;SDS011;61891;55.818;37.084;2023-07-16T09:10:54;3.40;;;3.10;;
72801;SDS011;61891;55.818;37.084;2023-07-16T09:13:21;4.10;;;3.70;;
72801;SDS011;61891;55.818;37.084;2023-07-16T09:15:52;3.50;;;3.20;;
72801;SDS011;61891;55.818;37.084;2023-07-16T09:18:19;3.88;;;3.53;;
72801;SDS011;61891;55.818;37.084;2023-07-16T09:20:59;4.07;;;3.00;;
72801;SDS011;61891;55.818;37.084;2023-07-16T09:23:31;3.33;;;3.03;;
72801;SDS011;61891;55.818;37.084;2023-07-16T09:25:58;3.72;;;3.33;;
72801;SDS011;61891;55.818;37.084;2023-07-16T09:28:24;3.00;;;2.45;;
72801;SDS011;61891;55.818;37.084;2023-07-16T09:30:50;2.78;;;2.58;;
72801;SDS011;61891;55.818;37.084;2023-07-16T09:33:17;4.53;;;2.90;;
72801;SDS011;61891;55.818;37.084;2023-07-16T09:35:49;3.25;;;2.95;;
72801;SDS011;61891;55.818;37.084;2023-07-16T09:38:15;4.15;;;3.25;;
72801;SDS011;61891;55.818;37.084;2023-07-16T09:40:42;3.80;;;2.90;;
72801;SDS011;61891;55.818;37.084;2023-07-16T09:43:08;3.08;;;2.88;;
72801;SDS011;61891;55.818;37.084;2023-07-16T09:45:35;5.43;;;3.15;;
72801;SDS011;61891;55.818;37.084;2023-07-16T09:48:04;3.47;;;3.05;;
72801;SDS011;61891;55.818;37.084;2023-07-16T09:50:32;3.50;;;3.20;;
72801;SDS011;61891;55.818;37.084;2023-07-16T09:53:00;3.42;;;3.00;;
72801;SDS011;61891;55.818;37.084;2023-07-16T09:55:28;2.95;;;2.75;;
72801;SDS011;61891;55.818;37.084;2023-07-16T09:57:57;3.55;;;2.80;;
72801;SDS011;61891;55.818;37.084;2023-07-16T10:00:25;2.88;;;2.58;;
72801;SDS011;61891;55.818;37.084;2023-07-16T10:02:53;3.38;;;3.08;;
72801;SDS011;61891;55.818;37.084;2023-07-16T10:05:26;3.22;;;2.75;;
72801;SDS011;61891;55.818;37.084;2023-07-16T10:07:57;3.25;;;3.03;;
72801;SDS011;61891;55.818;37.084;2023-07-16T10:10:26;3.33;;;3.03;;
72801;SDS011;61891;55.818;37.084;2023-07-16T10:13:04;4.07;;;3.17;;
72801;SDS011;61891;55.818;37.084;2023-07-16T10:15:30;3.63;;;3.33;;
72801;SDS011;61891;55.818;37.084;2023-07-16T10:17:56;3.33;;;3.03;;
72801;SDS011;61891;55.818;37.084;2023-07-16T10:20:29;4.57;;;3.38;;
72801;SDS011;61891;55.818;37.084;2023-07-16T10:22:55;4.10;;;3.70;;
72801;SDS011;61891;55.818;37.084;2023-07-16T10:25:22;4.78;;;3.20;;
72801;SDS011;61891;55.818;37.084;2023-07-16T10:27:51;4.32;;;3.40;;
72801;SDS011;61891;55.818;37.084;2023-07-16T10:30:17;4.10;;;3.60;;
72801;SDS011;61891;55.818;37.084;2023-07-16T10:32:44;4.15;;;3.58;;
72801;SDS011;61891;55.818;37.084;2023-07-16T10:35:12;3.97;;;3.58;;
72801;SDS011;61891;55.818;37.084;2023-07-16T10:37:38;4.10;;;3.70;;
72801;SDS011;61891;55.818;37.084;2023-07-16T10:40:05;3.58;;;3.28;;
72801;SDS011;61891;55.818;37.084;2023-07-16T10:42:34;3.70;;;3.33;;
72801;SDS011;61891;55.818;37.084;2023-07-16T10:45:01;3.50;;;3.20;;
72801;SDS011;61891;55.818;37.084;2023-07-16T10:47:36;3.83;;;3.40;;
72801;SDS011;61891;55.818;37.084;2023-07-16T10:50:04;3.58;;;3.28;;
72801;SDS011;61891;55.818;37.084;2023-07-16T10:52:31;3.97;;;3.67;;
72801;SDS011;61891;55.818;37.084;2023-07-16T10:54:57;3.55;;;3.25;;
72801;SDS011;61891;55.818;37.084;2023-07-16T10:57:24;3.80;;;3.50;;
72801;SDS011;61891;55.818;37.084;2023-07-16T10:59:52;3.78;;;3.47;;
72801;SDS011;61891;55.818;37.084;2023-07-16T11:02:18;4.00;;;3.70;;
72801;SDS011;61891;55.818;37.084;2023-07-16T11:04:46;4.70;;;3.53;;
72801;SDS011;61891;55.818;37.084;2023-07-16T11:07:13;3.83;;;3.42;;
72801;SDS011;61891;55.818;37.084;2023-07-16T11:09:43;4.07;;;2.85;;
72801;SDS011;61891;55.818;37.084;2023-07-16T11:12:13;3.78;;;3.40;;
72801;SDS011;61891;55.818;37.084;2023-07-16T11:14:44;3.08;;;2.88;;
72801;SDS011;61891;55.818;37.084;2023-07-16T11:17:11;4.47;;;3.33;;
72801;SDS011;61891;55.818;37.084;2023-07-16T11:19:37;4.00;;;3.15;;
72801;SDS011;61891;55.818;37.084;2023-07-16T11:22:05;4.78;;;3.20;;
72801;SDS011;61891;55.818;37.084;2023-07-16T11:27:12;3.70;;;3.40;;
72801;SDS011;61891;55.818;37.084;2023-07-16T11:32:13;4.20;;;3.80;;
72801;SDS011;61891;55.818;37.084;2023-07-16T11:35:01;3.95;;;3.60;;
72801;SDS011;61891;55.818;37.084;2023-07-16T11:37:31;3.85;;;3.55;;
72801;SDS011;61891;55.818;37.084;2023-07-16T11:40:00;5.47;;;4.90;;
72801;SDS011;61891;55.818;37.084;2023-07-16T11:42:33;5.05;;;4.55;;
72801;SDS011;61891;55.818;37.084;2023-07-16T11:45:00;4.97;;;4.47;;
72801;SDS011;61891;55.818;37.084;2023-07-16T11:47:33;4.38;;;4.05;;
72801;SDS011;61891;55.818;37.084;2023-07-16T11:49:58;3.67;;;3.20;;
72801;SDS011;61891;55.818;37.084;2023-07-16T11:52:28;3.58;;;3.28;;
72801;SDS011;61891;55.818;37.084;2023-07-16T11:54:56;3.67;;;3.13;;
72801;SDS011;61891;55.818;37.084;2023-07-16T11:57:32;3.90;;;3.15;;
72801;SDS011;61891;55.818;37.084;2023-07-16T11:59:58;3.28;;;2.97;;
72801;SDS011;61891;55.818;37.084;2023-07-16T12:02:25;4.97;;;3.20;;
72801;SDS011;61891;55.818;37.084;2023-07-16T12:04:51;3.78;;;3.38;;
72801;SDS011;61891;55.818;37.084;2023-07-16T12:07:38;3.20;;;2.88;;
72801;SDS011;61891;55.818;37.084;2023-07-16T12:10:04;3.45;;;3.25;;
72801;SDS011;61891;55.818;37.084;2023-07-16T12:12:34;3.75;;;3.47;;
72801;SDS011;61891;55.818;37.084;2023-07-16T12:15:04;3.60;;;3.30;;
72801;SDS011;61891;55.818;37.084;2023-07-16T12:17:31;3.60;;;3.30;;
72801;SDS011;61891;55.818;37.084;2023-07-16T12:19:57;3.50;;;3.22;;
72801;SDS011;61891;55.818;37.084;2023-07-16T12:22:22;3.78;;;3.45;;
72801;SDS011;61891;55.818;37.084;2023-07-16T12:24:49;3.47;;;3.22;;
72801;SDS011;61891;55.818;37.084;2023-07-16T12:27:15;3.67;;;3.45;;
72801;SDS011;61891;55.818;37.084;2023-07-16T12:29:42;5.35;;;3.45;;
72801;SDS011;61891;55.818;37.084;2023-07-16T12:32:09;3.95;;;3.13;;
72801;SDS011;61891;55.818;37.084;2023-07-16T12:34:35;4.07;;;3.67;;
72801;SDS011;61891;55.818;37.084;2023-07-16T12:37:02;5.05;;;3.55;;
72801;SDS011;61891;55.818;37.084;2023-07-16T12:39:28;3.80;;;3.15;;
72801;SDS011;61891;55.818;37.084;2023-07-16T12:41:54;3.40;;;2.90;;
72801;SDS011;61891;55.818;37.084;2023-07-16T12:44:20;3.55;;;3.25;;
72801;SDS011;61891;55.818;37.084;2023-07-16T12:46:46;5.18;;;3.17;;
72801;SDS011;61891;55.818;37.084;2023-07-16T12:49:12;3.40;;;3.10;;
72801;SDS011;61891;55.818;37.084;2023-07-16T12:51:38;3.95;;;3.58;;
72801;SDS011;61891;55.818;37.084;2023-07-16T12:54:04;5.00;;;3.55;;
72801;SDS011;61891;55.818;37.084;2023-07-16T12:56:30;3.45;;;3.15;;
72801;SDS011;61891;55.818;37.084;2023-07-16T12:58:56;4.82;;;2.90;;
72801;SDS011;61891;55.818;37.084;2023-07-16T13:01:22;3.55;;;3.25;;
72801;SDS011;61891;55.818;37.084;2023-07-16T13:03:48;3.70;;;3.50;;
72801;SDS011;61891;55.818;37.084;2023-07-16T13:06:14;3.25;;;3.05;;
72801;SDS011;61891;55.818;37.084;2023-07-16T13:08:39;5.05;;;4.55;;
72801;SDS011;61891;55.818;37.084;2023-07-16T13:11:05;4.22;;;3.83;;
72801;SDS011;61891;55.818;37.084;2023-07-16T13:13:31;4.78;;;4.03;;
72801;SDS011;61891;55.818;37.084;2023-07-16T13:15:57;3.80;;;3.50;;
72801;SDS011;61891;55.818;37.084;2023-07-16T13:18:23;3.92;;;3.63;;
72801;SDS011;61891;55.818;37.084;2023-07-16T13:20:48;3.92;;;3.53;;
72801;SDS011;61891;55.818;37.084;2023-07-16T13:23:14;4.20;;;3.67;;
72801;SDS011;61891;55.818;37.084;2023-07-16T13:25:40;3.70;;;3.40;;
72801;SDS011;61891;55.818;37.084;2023-07-16T13:28:06;3.40;;;3.10;;
72801;SDS011;61891;55.818;37.084;2023-07-16T13:30:32;3.95;;;3.65;;
72801;SDS011;61891;55.818;37.084;2023-07-16T13:32:58;4.72;;;3.63;;
72801;SDS011;61891;55.818;37.084;2023-07-16T13:35:25;4.20;;;3.80;;
72801;SDS011;61891;55.818;37.084;2023-07-16T13:37:50;5.85;;;3.50;;
72801;SDS011;61891;55.818;37.084;2023-07-16T13:40:16;3.47;;;3.20;;
72801;SDS011;61891;55.818;37.084;2023-07-16T13:42:45;5.85;;;5.40;;
72801;SDS011;61891;55.818;37.084;2023-07-16T13:45:12;4.05;;;3.75;;
72801;SDS011;61891;55.818;37.084;2023-07-16T13:47:39;3.95;;;3.55;;
72801;SDS011;61891;55.818;37.084;2023-07-16T13:50:04;4.13;;;3.50;;
72801;SDS011;61891;55.818;37.084;2023-07-16T13:52:31;3.50;;;3.20;;
72801;SDS011;61891;55.818;37.084;2023-07-16T13:54:57;3.92;;;3.50;;
72801;SDS011;61891;55.818;37.084;2023-07-16T13:57:23;3.70;;;3.35;;
72801;SDS011;61891;55.818;37.084;2023-07-16T13:59:49;5.25;;;4.10;;
72801;SDS011;61891;55.818;37.084;2023-07-16T14:02:14;3.80;;;3.50;;
72801;SDS011;61891;55.818;37.084;2023-07-16T14:04:40;4.38;;;3.97;;
72801;SDS011;61891;55.818;37.084;2023-07-16T14:07:06;3.58;;;3.28;;
72801;SDS011;61891;55.818;37.084;2023-07-16T14:09:32;3.85;;;3.35;;
72801;SDS011;61891;55.818;37.084;2023-07-16T14:11:57;3.75;;;3.45;;
72801;SDS011;61891;55.818;37.084;2023-07-16T14:14:23;4.65;;;3.78;;
72801;SDS011;61891;55.818;37.084;2023-07-16T14:16:49;5.10;;;3.45;;
72801;SDS011;61891;55.818;37.084;2023-07-16T14:19:15;3.65;;;3.28;;
72801;SDS011;61891;55.818;37.084;2023-07-16T14:21:41;4.85;;;3.30;;
72801;SDS011;61891;55.818;37.084;2023-07-16T14:24:07;4.28;;;3.22;;
72801;SDS011;61891;55.818;37.084;2023-07-16T14:26:33;3.80;;;3.50;;
72801;SDS011;61891;55.818;37.084;2023-07-16T14:28:59;6.65;;;3.63;;
72801;SDS011;61891;55.818;37.084;2023-07-16T14:31:25;3.70;;;3.35;;
72801;SDS011;61891;55.818;37.084;2023-07-16T14:33:51;6.47;;;3.97;;
72801;SDS011;61891;55.818;37.084;2023-07-16T14:36:17;3.50;;;3.20;;
72801;SDS011;61891;55.818;37.084;2023-07-16T14:38:43;4.75;;;3.58;;
72801;SDS011;61891;55.818;37.084;2023-07-16T14:41:09;4.05;;;3.63;;
72801;SDS011;61891;55.818;37.084;2023-07-16T14:43:35;3.85;;;3.55;;
72801;SDS011;61891;55.818;37.084;2023-07-16T14:46:01;5.82;;;4.00;;
72801;SDS011;61891;55.818;37.084;2023-07-16T14:48:28;4.30;;;3.85;;
72801;SDS011;61891;55.818;37.084;2023-07-16T14:50:54;4.90;;;4.50;;
72801;SDS011;61891;55.818;37.084;2023-07-16T14:53:20;5.22;;;4.10;;
72801;SDS011;61891;55.818;37.084;2023-07-16T14:55:46;4.97;;;4.15;;
72801;SDS011;61891;55.818;37.084;2023-07-16T14:58:17;4.80;;;4.28;;
72801;SDS011;61891;55.818;37.084;2023-07-16T15:00:45;4.32;;;3.90;;
72801;SDS011;61891;55.818;37.084;2023-07-16T15:03:11;6.78;;;3.72;;
72801;SDS011;61891;55.818;37.084;2023-07-16T15:05:37;4.68;;;4.25;;
72801;SDS011;61891;55.818;37.084;2023-07-16T15:08:03;4.95;;;4.43;;
72801;SDS011;61891;55.818;37.084;2023-07-16T15:10:30;4.95;;;4.55;;
72801;SDS011;61891;55.818;37.084;2023-07-16T15:12:57;4.47;;;4.07;;
72801;SDS011;61891;55.818;37.084;2023-07-16T15:15:23;4.53;;;3.88;;
72801;SDS011;61891;55.818;37.084;2023-07-16T15:17:48;4.72;;;3.80;;
72801;SDS011;61891;55.818;37.084;2023-07-16T15:20:14;4.10;;;3.78;;
72801;SDS011;61891;55.818;37.084;2023-07-16T15:22:40;4.93;;;3.83;;
72801;SDS011;61891;55.818;37.084;2023-07-16T15:25:06;4.55;;;3.67;;
72801;SDS011;61891;55.818;37.084;2023-07-16T15:27:32;4.30;;;3.63;;
72801;SDS011;61891;55.818;37.084;2023-07-16T15:29:58;4.32;;;3.92;;
72801;SDS011;61891;55.818;37.084;2023-07-16T15:32:24;4.22;;;3.83;;